Time;durP1;ratioP1;P1;durP2;ratioP2;P2;SDS_P1;SDS_P2;PMS_P1;PMS_P2;Temp;Humidity;BMP_temperature;BMP_pressure;BME280_temperature;BME280_humidity;BME280_pressure;Samples;Min_cycle;Max_cycle;Signal;HPM_P1;HPM_P2
2022/04/11 00:01:56;;;;;;;11.55;5.82;;;3.30;99.90;;;;;;4948577;28;20038;-88
2022/04/11 00:04:22;;;;;;;13.43;7.50;;;3.20;99.90;;;;;;4947763;28;20022;-88
2022/04/11 00:06:48;;;;;;;13.38;6.30;;;3.30;99.90;;;;;;4964437;28;20025;-90
2022/04/11 00:09:13;;;;;;;17.30;9.15;;;3.20;99.90;;;;;;4978821;28;20010;-91
2022/04/11 00:11:39;;;;;;;15.25;7.50;;;3.20;99.90;;;;;;4963243;28;20042;-89
2022/04/11 00:14:05;;;;;;;8.27;4.45;;;3.20;99.90;;;;;;4941280;29;20046;-90
2022/04/11 00:16:31;;;;;;;10.98;5.97;;;3.20;99.90;;;;;;4964330;28;20429;-87
2022/04/11 00:18:57;;;;;;;27.38;12.93;;;3.10;99.90;;;;;;4963807;28;20054;-87
2022/04/11 00:21:22;;;;;;;49.70;23.77;;;3.10;99.90;;;;;;4952359;28;20089;-88
2022/04/11 00:23:48;;;;;;;21.95;11.90;;;3.10;99.90;;;;;;4945759;28;20391;-88
2022/04/11 00:26:14;;;;;;;11.82;6.18;;;3.10;99.90;;;;;;4940815;28;20030;-88
2022/04/11 00:28:39;;;;;;;7.47;3.78;;;3.10;99.90;;;;;;4960209;28;20042;-89
2022/04/11 00:31:05;;;;;;;9.93;5.85;;;3.00;99.90;;;;;;4952964;28;20035;-87
2022/04/11 00:33:31;;;;;;;4.60;3.25;;;3.00;99.90;;;;;;4954879;28;20137;-89
2022/04/11 00:35:56;;;;;;;4.25;3.47;;;2.90;99.90;;;;;;4973805;28;20058;-87
2022/04/11 00:38:22;;;;;;;5.03;3.28;;;2.90;99.90;;;;;;4968952;28;20117;-90
2022/04/11 00:40:48;;;;;;;3.40;2.50;;;2.90;99.90;;;;;;4968867;28;20109;-87
2022/04/11 00:43:32;;;;;;;4.85;3.30;;;2.80;99.90;;;;;;4955531;28;20454;-89
2022/04/11 00:45:58;;;;;;;6.13;3.13;;;2.80;99.90;;;;;;4953874;28;20399;-88
2022/04/11 00:48:23;;;;;;;8.70;3.50;;;2.80;99.90;;;;;;4953933;28;20031;-88
2022/04/11 00:50:53;;;;;;;4.20;3.38;;;2.80;99.90;;;;;;4948449;28;20507;-88
2022/04/11 00:53:19;;;;;;;4.20;3.10;;;2.70;99.90;;;;;;4944358;28;20031;-89
2022/04/11 00:55:46;;;;;;;5.70;3.35;;;2.70;99.90;;;;;;4955655;28;20046;-89
2022/04/11 00:58:11;;;;;;;4.18;2.88;;;2.70;99.90;;;;;;4947471;28;20086;-89
2022/04/11 01:00:38;;;;;;;6.20;3.00;;;2.70;99.90;;;;;;4955701;28;20543;-88
2022/04/11 01:03:03;;;;;;;3.38;2.83;;;2.70;99.90;;;;;;4955080;28;20034;-87
2022/04/11 01:05:29;;;;;;;4.20;2.88;;;2.70;99.90;;;;;;4950541;28;20113;-90
2022/04/11 01:08:02;;;;;;;5.82;2.88;;;2.70;99.90;;;;;;4956438;28;20037;-87
2022/04/11 01:10:28;;;;;;;5.22;3.00;;;2.70;99.90;;;;;;4959506;28;20098;-87
2022/04/11 01:12:54;;;;;;;6.70;3.63;;;2.70;99.90;;;;;;4956551;28;20030;-88
2022/04/11 01:15:19;;;;;;;12.15;5.88;;;2.60;99.90;;;;;;4951980;28;20035;-88
2022/04/11 01:17:45;;;;;;;13.70;5.53;;;2.60;99.90;;;;;;4975353;28;20058;-89
2022/04/11 01:20:12;;;;;;;7.97;4.00;;;2.60;99.90;;;;;;4947395;28;20027;-88
2022/04/11 01:22:39;;;;;;;16.77;6.47;;;2.60;99.90;;;;;;4952310;28;20094;-88
2022/04/11 01:25:05;;;;;;;10.82;6.00;;;2.60;99.90;;;;;;4947434;28;20045;-89
2022/04/11 01:27:32;;;;;;;8.20;5.18;;;2.60;99.90;;;;;;4953570;28;20050;-91
2022/04/11 01:29:58;;;;;;;8.63;5.68;;;2.60;99.90;;;;;;4950161;28;20023;-90
2022/04/11 01:32:23;;;;;;;9.63;5.43;;;2.60;99.90;;;;;;4944820;28;20045;-89
2022/04/11 01:34:49;;;;;;;5.28;3.70;;;2.60;99.90;;;;;;4956897;28;20047;-87
2022/04/11 01:37:15;;;;;;;4.25;3.03;;;2.60;99.90;;;;;;4960197;28;20046;-87
2022/04/11 01:39:40;;;;;;;3.25;2.63;;;2.60;99.90;;;;;;4957933;28;20479;-89
2022/04/11 01:42:06;;;;;;;4.18;2.65;;;2.60;99.90;;;;;;4955582;28;20475;-88
2022/04/11 01:44:32;;;;;;;3.97;2.30;;;2.60;99.90;;;;;;4949692;28;20609;-91
2022/04/11 01:46:57;;;;;;;3.85;3.45;;;2.50;99.90;;;;;;4955156;28;20062;-87
2022/04/11 01:49:23;;;;;;;4.43;2.80;;;2.50;99.90;;;;;;4975590;28;20035;-91
2022/04/11 01:51:48;;;;;;;4.05;3.10;;;2.40;99.90;;;;;;4970962;28;20034;-88
2022/04/11 01:54:18;;;;;;;4.68;2.97;;;2.40;99.90;;;;;;4992346;23;20014;-88
2022/04/11 01:56:44;;;;;;;4.40;2.88;;;2.40;99.90;;;;;;4953006;29;20050;-90
2022/04/11 01:59:09;;;;;;;8.13;3.17;;;2.40;99.90;;;;;;4949110;29;20024;-90
2022/04/11 02:01:35;;;;;;;4.93;3.13;;;2.40;99.90;;;;;;4951383;29;20374;-89
2022/04/11 02:04:01;;;;;;;6.15;3.08;;;2.50;99.90;;;;;;4949749;28;20027;-89
2022/04/11 02:06:26;;;;;;;3.95;3.40;;;2.50;99.90;;;;;;4931751;29;20501;-90
2022/04/11 02:08:52;;;;;;;3.78;3.08;;;2.40;99.90;;;;;;4918321;29;20698;-89
2022/04/11 02:11:17;;;;;;;3.20;2.90;;;2.50;99.90;;;;;;4931088;29;20023;-89
2022/04/11 02:13:43;;;;;;;4.80;3.38;;;2.50;99.90;;;;;;4918194;29;20066;-90
2022/04/11 02:16:09;;;;;;;5.05;2.95;;;2.50;99.90;;;;;;4914843;29;20387;-90
2022/04/11 02:18:34;;;;;;;5.25;3.03;;;2.40;99.90;;;;;;4926873;29;20062;-89
2022/04/11 02:21:00;;;;;;;4.65;3.47;;;2.40;99.90;;;;;;4918761;29;20041;-89
2022/04/11 02:23:25;;;;;;;2.67;2.42;;;2.40;99.90;;;;;;4915463;29;20016;-90
2022/04/11 02:25:51;;;;;;;7.75;3.60;;;2.40;99.90;;;;;;4919181;29;20023;-89
2022/04/11 02:28:16;;;;;;;4.72;3.30;;;2.40;99.90;;;;;;4915560;29;20546;-90
2022/04/11 02:30:42;;;;;;;4.25;2.97;;;2.50;99.90;;;;;;4931156;29;20533;-90
2022/04/11 02:33:08;;;;;;;4.50;3.15;;;2.50;99.90;;;;;;4918204;29;20024;-90
2022/04/11 02:35:33;;;;;;;3.17;2.75;;;2.40;99.90;;;;;;4918954;29;20027;-90
2022/04/11 02:37:59;;;;;;;4.78;2.75;;;2.50;99.90;;;;;;4921300;29;20039;-90
2022/04/11 02:40:25;;;;;;;6.18;3.08;;;2.40;99.90;;;;;;4934589;29;20027;-90
2022/04/11 02:42:50;;;;;;;5.90;3.53;;;2.40;99.90;;;;;;4915857;29;20032;-89
2022/04/11 02:45:16;;;;;;;3.28;2.90;;;2.40;99.90;;;;;;4913273;29;20031;-89
2022/04/11 02:47:42;;;;;;;4.60;3.30;;;2.30;99.90;;;;;;4940534;29;20114;-89
2022/04/11 02:50:08;;;;;;;3.33;3.03;;;2.30;99.90;;;;;;4918999;29;20055;-89
2022/04/11 02:52:34;;;;;;;6.22;3.10;;;2.40;99.90;;;;;;4917635;29;20024;-89
2022/04/11 02:55:00;;;;;;;6.90;3.58;;;2.40;99.90;;;;;;4922736;29;20044;-90
2022/04/11 02:57:26;;;;;;;4.55;3.05;;;2.40;99.90;;;;;;4921674;29;20038;-90
2022/04/11 02:59:53;;;;;;;5.03;3.20;;;2.40;99.90;;;;;;4911113;29;20020;-89
2022/04/11 03:02:19;;;;;;;4.40;3.17;;;2.30;99.90;;;;;;4932857;29;20028;-90
2022/04/11 03:04:45;;;;;;;4.88;3.20;;;2.30;99.90;;;;;;4919168;29;20474;-90
2022/04/11 03:07:11;;;;;;;4.38;3.40;;;2.30;99.90;;;;;;4918736;29;20050;-89
2022/04/11 03:09:37;;;;;;;4.25;2.97;;;2.30;99.90;;;;;;4936247;29;20086;-90
2022/04/11 03:12:03;;;;;;;4.68;3.47;;;2.20;99.90;;;;;;4915291;29;20483;-90
2022/04/11 03:14:30;;;;;;;4.82;2.97;;;2.20;99.90;;;;;;4918408;29;20066;-90
2022/04/11 03:16:56;;;;;;;6.75;3.65;;;2.20;99.90;;;;;;4916901;29;20047;-90
2022/04/11 03:19:22;;;;;;;5.93;3.88;;;2.30;99.90;;;;;;4919148;29;20426;-89
2022/04/11 03:21:47;;;;;;;6.65;3.78;;;2.20;99.90;;;;;;4919373;29;20054;-88
2022/04/11 03:24:13;;;;;;;5.72;3.47;;;2.20;99.90;;;;;;4918681;29;20020;-89
2022/04/11 03:27:24;;;;;;;4.20;3.40;;;2.20;99.90;;;;;;4918369;29;20038;-89
2022/04/11 03:29:49;;;;;;;3.83;3.25;;;2.20;99.90;;;;;;4914230;29;20131;-90
2022/04/11 03:32:15;;;;;;;4.78;3.67;;;2.20;99.90;;;;;;4921521;29;20063;-89
2022/04/11 03:34:40;;;;;;;6.28;3.70;;;2.10;99.90;;;;;;4918333;29;20083;-89
2022/04/11 03:37:06;;;;;;;5.88;3.50;;;2.00;99.90;;;;;;4919212;29;20376;-89
2022/04/11 03:39:32;;;;;;;5.72;4.00;;;2.00;99.90;;;;;;4917960;29;20027;-90
2022/04/11 03:41:57;;;;;;;7.90;4.65;;;1.90;99.90;;;;;;4917697;29;20028;-89
2022/04/11 03:44:23;;;;;;;7.18;4.20;;;1.90;99.90;;;;;;4921592;29;20027;-90
2022/04/11 03:46:48;;;;;;;4.97;3.40;;;1.80;99.90;;;;;;4936892;29;20027;-89
2022/04/11 03:49:14;;;;;;;8.55;3.70;;;1.80;99.90;;;;;;4920868;29;20012;-91
2022/04/11 03:51:40;;;;;;;7.30;4.28;;;1.80;99.90;;;;;;4907560;29;20151;-89
2022/04/11 03:54:06;;;;;;;5.43;4.20;;;1.80;99.90;;;;;;4912096;29;20490;-89
2022/04/11 03:56:31;;;;;;;5.60;4.00;;;1.80;99.90;;;;;;4918046;29;20043;-89
2022/04/11 03:58:57;;;;;;;5.63;3.85;;;1.80;99.90;;;;;;4916735;29;20507;-89
2022/04/11 04:01:22;;;;;;;5.75;4.35;;;1.80;99.90;;;;;;4915859;29;20020;-88
2022/04/11 04:03:48;;;;;;;6.22;3.90;;;1.80;99.90;;;;;;4910129;29;20080;-89
2022/04/11 04:06:14;;;;;;;6.72;4.20;;;1.80;99.90;;;;;;4917825;29;20027;-89
2022/04/11 04:08:39;;;;;;;7.00;4.30;;;1.80;99.90;;;;;;4914820;29;20379;-89
2022/04/11 04:11:06;;;;;;;6.60;4.88;;;1.80;99.90;;;;;;4918832;29;20039;-89
2022/04/11 04:13:34;;;;;;;5.32;4.05;;;1.80;99.90;;;;;;4919819;29;20474;-89
2022/04/11 04:15:59;;;;;;;5.97;4.00;;;1.90;99.90;;;;;;4928011;29;20032;-89
2022/04/11 04:18:25;;;;;;;6.28;4.13;;;1.80;99.90;;;;;;4935944;28;20039;-87
2022/04/11 04:20:53;;;;;;;6.95;4.18;;;1.80;99.90;;;;;;4943181;28;20032;-87
2022/04/11 04:23:18;;;;;;;8.85;4.22;;;1.80;99.90;;;;;;4940826;28;20031;-86
2022/04/11 04:25:44;;;;;;;5.85;4.20;;;1.80;99.90;;;;;;4936300;28;20017;-87
2022/04/11 04:28:09;;;;;;;6.80;4.38;;;1.90;99.90;;;;;;4943321;28;20068;-86
2022/04/11 04:30:35;;;;;;;6.95;4.38;;;1.90;99.90;;;;;;4937669;28;20036;-88
2022/04/11 04:33:00;;;;;;;5.68;4.47;;;1.90;99.90;;;;;;4932788;29;20043;-90
2022/04/11 04:35:27;;;;;;;4.95;3.95;;;2.00;99.90;;;;;;4932912;29;20509;-89
2022/04/11 04:37:53;;;;;;;6.68;3.90;;;2.10;99.90;;;;;;4937709;29;20040;-88
2022/04/11 04:40:19;;;;;;;9.48;4.43;;;2.10;99.90;;;;;;4947281;28;20060;-89
2022/04/11 04:42:45;;;;;;;7.93;4.40;;;2.10;99.90;;;;;;4938285;28;20020;-86
2022/04/11 04:45:11;;;;;;;5.90;4.30;;;2.20;99.90;;;;;;4956502;28;20030;-90
2022/04/11 04:47:36;;;;;;;5.78;4.60;;;2.20;99.90;;;;;;4934618;29;20047;-91
2022/04/11 04:50:02;;;;;;;8.52;4.70;;;2.30;99.90;;;;;;4922659;29;20097;-90
2022/04/11 04:52:28;;;;;;;6.03;4.47;;;2.30;99.90;;;;;;4916433;29;20027;-89
2022/04/11 04:54:53;;;;;;;11.10;4.93;;;2.40;99.90;;;;;;4914147;29;20035;-89
2022/04/11 04:57:19;;;;;;;7.18;4.43;;;2.40;99.90;;;;;;4921635;29;20058;-87
2022/04/11 04:59:45;;;;;;;9.48;4.40;;;2.50;99.90;;;;;;4921979;29;20490;-88
2022/04/11 05:02:10;;;;;;;8.30;5.20;;;2.50;99.90;;;;;;4922043;29;20031;-89
2022/04/11 05:04:36;;;;;;;6.57;4.72;;;2.50;99.90;;;;;;4923354;29;20059;-89
2022/04/11 05:07:02;;;;;;;7.53;4.70;;;2.50;99.90;;;;;;4923297;29;20059;-89
2022/04/11 05:09:28;;;;;;;6.40;4.60;;;2.60;99.90;;;;;;4928472;29;20038;-88
2022/04/11 05:11:53;;;;;;;10.02;5.35;;;2.60;99.90;;;;;;4938889;29;20107;-89
2022/04/11 05:14:19;;;;;;;7.93;5.43;;;2.60;99.90;;;;;;4921165;29;20031;-88
2022/04/11 05:16:44;;;;;;;9.55;4.90;;;2.60;99.90;;;;;;4921763;29;20023;-89
2022/04/11 05:19:10;;;;;;;11.52;4.85;;;2.60;99.90;;;;;;4921832;29;20511;-88
2022/04/11 05:21:35;;;;;;;5.10;4.38;;;2.60;99.90;;;;;;4921564;29;20023;-89
2022/04/11 05:24:01;;;;;;;8.32;4.80;;;2.60;99.90;;;;;;4925047;29;20051;-89
2022/04/11 05:26:27;;;;;;;7.70;4.78;;;2.60;99.90;;;;;;4917979;29;20126;-88
2022/04/11 05:28:52;;;;;;;10.43;5.30;;;2.70;99.90;;;;;;4906182;29;20027;-90
2022/04/11 05:31:18;;;;;;;11.07;5.57;;;2.70;99.90;;;;;;4922023;29;20126;-91
2022/04/11 05:33:45;;;;;;;8.13;4.90;;;2.70;99.90;;;;;;4921755;29;20039;-92
2022/04/11 05:36:11;;;;;;;7.85;5.15;;;2.70;99.90;;;;;;4921728;29;20031;-90
2022/04/11 05:38:37;;;;;;;6.93;4.85;;;2.70;99.90;;;;;;4920360;29;20088;-91
2022/04/11 05:41:02;;;;;;;9.77;5.32;;;2.70;99.90;;;;;;4922074;29;20019;-91
2022/04/11 05:43:28;;;;;;;6.45;4.50;;;2.70;99.90;;;;;;4921577;29;20031;-89
2022/04/11 05:45:53;;;;;;;9.23;5.68;;;2.70;99.90;;;;;;4921231;29;20032;-92
2022/04/11 05:48:19;;;;;;;6.43;5.18;;;2.80;99.90;;;;;;4921150;29;20035;-91
2022/04/11 05:50:45;;;;;;;9.77;5.22;;;2.70;99.90;;;;;;4921254;29;20130;-90
2022/04/11 05:53:10;;;;;;;7.72;5.35;;;2.80;99.90;;;;;;4921058;29;20028;-89
2022/04/11 05:55:36;;;;;;;6.65;5.13;;;2.80;99.90;;;;;;4916808;29;20044;-92
2022/04/11 05:58:01;;;;;;;8.07;5.60;;;2.80;99.90;;;;;;4922293;29;20035;-92
2022/04/11 06:00:27;;;;;;;8.52;5.53;;;2.90;99.90;;;;;;4933557;28;20032;-89
2022/04/11 06:02:53;;;;;;;11.65;5.63;;;2.90;99.90;;;;;;4928467;28;20016;-87
2022/04/11 06:05:18;;;;;;;9.07;5.75;;;3.00;99.90;;;;;;4941156;28;20028;-88
2022/04/11 06:07:44;;;;;;;9.82;5.82;;;3.10;99.90;;;;;;4944366;28;20011;-88
2022/04/11 06:10:11;;;;;;;9.15;5.57;;;3.10;99.90;;;;;;4944432;28;20083;-88
2022/04/11 06:12:37;;;;;;;13.07;5.88;;;3.10;99.90;;;;;;4943870;28;20024;-89
2022/04/11 06:15:03;;;;;;;13.27;6.00;;;3.20;99.90;;;;;;4942236;29;20060;-90
2022/04/11 06:17:29;;;;;;;10.80;6.10;;;3.30;99.90;;;;;;4929940;29;20064;-93
2022/04/11 06:19:57;;;;;;;13.75;5.63;;;3.30;99.90;;;;;;4925888;29;20028;-90
2022/04/11 06:22:24;;;;;;;11.75;5.65;;;3.30;99.90;;;;;;4920806;29;20027;-89
2022/04/11 06:27:43;;;;;;;12.52;6.93;;;3.40;99.90;;;;;;4939045;29;20043;-92
2022/04/11 06:30:25;;;;;;;8.40;5.97;;;3.50;99.90;;;;;;4920824;29;20032;-90
2022/04/11 06:35:57;;;;;;;9.52;6.47;;;3.80;99.90;;;;;;4936965;29;20079;-89
2022/04/11 06:38:23;;;;;;;9.43;5.72;;;4.00;99.90;;;;;;4919597;29;20348;-90
2022/04/11 06:40:49;;;;;;;9.10;6.60;;;4.20;99.90;;;;;;4919585;29;20112;-90
2022/04/11 06:43:15;;;;;;;9.50;6.53;;;4.20;99.90;;;;;;4920178;29;20028;-91
2022/04/11 06:45:40;;;;;;;9.05;6.53;;;4.40;99.90;;;;;;4919351;29;20076;-91
2022/04/11 06:48:06;;;;;;;9.60;6.43;;;4.50;99.90;;;;;;4918967;29;20471;-91
2022/04/11 06:50:31;;;;;;;10.98;6.57;;;4.70;99.90;;;;;;4919463;29;20078;-90
2022/04/11 06:52:57;;;;;;;12.18;7.03;;;4.80;99.90;;;;;;4911291;29;20035;-91
2022/04/11 06:55:23;;;;;;;8.45;6.40;;;5.00;99.90;;;;;;4918909;29;20036;-91
2022/04/11 06:57:48;;;;;;;11.05;6.15;;;5.30;99.90;;;;;;4919532;29;20503;-91
2022/04/11 07:00:14;;;;;;;10.05;6.40;;;5.50;99.90;;;;;;4919664;29;20055;-91
2022/04/11 07:02:40;;;;;;;13.02;6.10;;;5.70;99.90;;;;;;4935635;28;20039;-89
2022/04/11 07:05:06;;;;;;;7.13;6.18;;;5.90;99.90;;;;;;4941921;28;20044;-88
2022/04/11 07:07:33;;;;;;;7.45;5.47;;;6.20;99.90;;;;;;4949984;28;20074;-87
2022/04/11 07:10:00;;;;;;;8.43;5.53;;;6.40;99.90;;;;;;4944177;28;20059;-88
2022/04/11 07:12:25;;;;;;;5.75;4.90;;;6.70;99.90;;;;;;4928548;29;20031;-88
2022/04/11 07:14:52;;;;;;;6.60;5.13;;;7.00;99.90;;;;;;4918989;29;20455;-88
2022/04/11 07:17:17;;;;;;;5.68;4.57;;;7.30;99.90;;;;;;4919397;29;20406;-88
2022/04/11 07:19:43;;;;;;;9.07;4.88;;;7.60;99.90;;;;;;4919069;29;20022;-89
2022/04/11 07:22:08;;;;;;;5.97;5.10;;;7.90;99.90;;;;;;4919404;29;20391;-89
2022/04/11 07:24:37;;;;;;;5.95;4.53;;;8.20;99.90;;;;;;4918950;29;20027;-90
2022/04/11 07:27:03;;;;;;;6.70;4.78;;;8.60;99.90;;;;;;4918714;29;20028;-89
2022/04/11 07:29:29;;;;;;;5.60;4.32;;;8.90;99.90;;;;;;4936343;29;20114;-89
2022/04/11 07:31:55;;;;;;;6.03;4.25;;;9.20;99.90;;;;;;4919152;29;20059;-89
2022/04/11 07:34:20;;;;;;;5.40;3.97;;;9.60;99.90;;;;;;4918697;29;20394;-89
2022/04/11 07:36:46;;;;;;;5.60;3.95;;;10.00;99.90;;;;;;4910994;29;20027;-89
2022/04/11 07:39:13;;;;;;;7.95;4.03;;;10.30;99.90;;;;;;4900280;29;20059;-89
2022/04/11 07:41:39;;;;;;;8.07;4.20;;;10.60;99.90;;;;;;4921587;29;20024;-89
2022/04/11 07:44:04;;;;;;;7.60;3.55;;;11.00;99.90;;;;;;4918773;29;20034;-89
2022/04/11 07:46:30;;;;;;;5.65;2.83;;;11.40;99.90;;;;;;4933879;29;20043;-89
2022/04/11 07:48:55;;;;;;;5.68;2.72;;;11.70;99.90;;;;;;4919471;29;20071;-89
2022/04/11 07:51:21;;;;;;;3.63;2.40;;;11.90;99.90;;;;;;4918772;29;20034;-89
2022/04/11 07:53:46;;;;;;;7.22;2.40;;;12.20;99.90;;;;;;4919088;29;20127;-90
2022/04/11 07:56:12;;;;;;;3.38;2.38;;;12.40;99.90;;;;;;4954462;23;20041;-86
2022/04/11 07:58:38;;;;;;;6.25;2.65;;;12.50;99.90;;;;;;4915087;29;20483;-84
2022/04/11 08:01:03;;;;;;;4.28;2.55;;;12.60;99.50;;;;;;4923712;29;20103;-85
2022/04/11 08:03:29;;;;;;;4.78;2.10;;;12.70;99.30;;;;;;4924575;29;20055;-86
2022/04/11 08:05:54;;;;;;;5.75;2.50;;;12.90;99.20;;;;;;4916015;29;20508;-87
2022/04/11 08:08:20;;;;;;;4.70;2.80;;;13.10;98.70;;;;;;4943396;29;20091;-85
2022/04/11 08:10:46;;;;;;;4.55;2.28;;;13.20;97.80;;;;;;4943802;29;20156;-86
2022/04/11 08:13:12;;;;;;;3.47;2.35;;;13.40;97.20;;;;;;4926639;29;20050;-84
2022/04/11 08:15:37;;;;;;;2.90;2.60;;;13.60;97.40;;;;;;4926532;29;20015;-86
2022/04/11 08:18:03;;;;;;;3.75;2.50;;;13.90;96.50;;;;;;4943215;29;20027;-86
2022/04/11 08:20:29;;;;;;;6.30;2.40;;;14.20;95.60;;;;;;4925092;29;20079;-85
2022/04/11 08:22:55;;;;;;;3.70;2.55;;;14.40;94.80;;;;;;4944047;29;20038;-86
2022/04/11 08:25:20;;;;;;;3.22;2.33;;;14.60;94.00;;;;;;4925407;29;20031;-85
2022/04/11 08:27:46;;;;;;;2.70;2.30;;;14.90;93.10;;;;;;4943119;29;20119;-85
2022/04/11 08:30:15;;;;;;;4.10;2.42;;;15.10;92.40;;;;;;4925845;29;20554;-86
2022/04/11 08:32:48;;;;;;;3.33;2.47;;;15.30;91.50;;;;;;4927161;29;20078;-84
2022/04/11 08:35:15;;;;;;;2.33;2.13;;;15.60;90.80;;;;;;4923315;29;20377;-87
2022/04/11 08:37:40;;;;;;;3.05;2.05;;;15.80;90.00;;;;;;4924482;29;20036;-84
2022/04/11 08:40:07;;;;;;;4.05;2.40;;;16.00;88.40;;;;;;4942764;29;20038;-87
2022/04/11 08:42:33;;;;;;;4.35;2.15;;;16.30;86.70;;;;;;4923798;29;20072;-88
2022/04/11 08:45:00;;;;;;;4.63;2.20;;;16.70;85.90;;;;;;4941229;29;20058;-87
2022/04/11 08:47:25;;;;;;;3.38;2.20;;;17.10;84.90;;;;;;4942534;29;21748;-86
2022/04/11 08:49:53;;;;;;;3.33;2.47;;;17.50;83.40;;;;;;4925466;29;20125;-88
2022/04/11 08:52:20;;;;;;;4.05;2.63;;;17.80;80.60;;;;;;4942075;29;20023;-87
2022/04/11 08:54:46;;;;;;;2.88;1.92;;;18.10;78.30;;;;;;4943024;29;20496;-87
2022/04/11 08:57:11;;;;;;;6.35;2.50;;;18.20;76.80;;;;;;4925056;29;20043;-86
2022/04/11 08:59:37;;;;;;;5.40;2.45;;;18.40;75.20;;;;;;4945119;29;20027;-87
2022/04/11 09:02:09;;;;;;;2.95;2.00;;;18.70;74.00;;;;;;4930038;29;20119;-87
2022/04/11 09:04:50;;;;;;;2.15;1.73;;;19.10;71.80;;;;;;4928241;29;20028;-87
2022/04/11 09:07:16;;;;;;;5.65;2.33;;;19.50;70.50;;;;;;4928457;29;20528;-86
2022/04/11 09:09:42;;;;;;;2.67;1.80;;;19.80;68.90;;;;;;4945332;29;20028;-87
2022/04/11 09:12:14;;;;;;;2.78;1.95;;;20.10;66.10;;;;;;4928485;29;20027;-87
2022/04/11 09:14:40;;;;;;;2.90;1.70;;;20.40;63.60;;;;;;4923387;29;20024;-86
2022/04/11 09:17:06;;;;;;;4.13;2.15;;;20.70;63.40;;;;;;4924478;29;20040;-85
2022/04/11 09:19:32;;;;;;;4.93;2.15;;;20.90;61.00;;;;;;4926717;29;20035;-85
2022/04/11 09:21:58;;;;;;;2.22;1.60;;;21.10;59.90;;;;;;4916347;29;20023;-85
2022/04/11 09:24:26;;;;;;;3.47;1.80;;;21.20;59.40;;;;;;4949740;29;20040;-84
2022/04/11 09:26:55;;;;;;;3.00;1.50;;;21.10;58.90;;;;;;4936189;29;20035;-85
2022/04/11 09:29:25;;;;;;;4.05;1.60;;;20.90;58.30;;;;;;4920496;29;20031;-86
2022/04/11 09:31:51;;;;;;;3.00;1.63;;;20.70;57.80;;;;;;4923606;29;20039;-86
2022/04/11 09:34:18;;;;;;;3.05;1.38;;;20.70;58.10;;;;;;4933670;29;20038;-86
2022/04/11 09:36:50;;;;;;;1.67;1.52;;;20.70;57.00;;;;;;4938430;29;20036;-87
2022/04/11 09:39:21;;;;;;;3.53;1.60;;;20.80;55.70;;;;;;4940512;29;20042;-86
2022/04/11 09:41:47;;;;;;;1.77;1.50;;;20.90;54.90;;;;;;4921181;29;20028;-85
2022/04/11 09:44:27;;;;;;;2.92;1.45;;;20.90;55.10;;;;;;4937375;29;20024;-83
2022/04/11 09:47:04;;;;;;;3.35;1.20;;;21.10;54.50;;;;;;4941840;29;20020;-85
2022/04/11 09:49:30;;;;;;;2.95;1.50;;;21.20;53.90;;;;;;4944704;29;20035;-87
2022/04/11 09:52:09;;;;;;;4.50;1.50;;;21.30;54.00;;;;;;4943087;29;20330;-85
2022/04/11 09:54:37;;;;;;;1.63;1.50;;;21.50;51.30;;;;;;4943838;29;20168;-85
2022/04/11 09:57:05;;;;;;;4.53;1.85;;;21.60;51.70;;;;;;4943557;29;20143;-87
2022/04/11 09:59:31;;;;;;;2.78;1.60;;;21.60;51.80;;;;;;4944344;29;20027;-85
2022/04/11 10:01:57;;;;;;;3.20;2.00;;;21.20;51.40;;;;;;4942217;29;20031;-87
2022/04/11 10:04:23;;;;;;;2.30;1.70;;;20.80;52.10;;;;;;4942973;29;20019;-87
2022/04/11 10:06:49;;;;;;;4.35;1.88;;;20.40;52.80;;;;;;4943101;29;20027;-88
2022/04/11 10:09:15;;;;;;;2.10;1.77;;;20.10;53.30;;;;;;4924730;29;20097;-86
2022/04/11 10:11:42;;;;;;;3.45;1.75;;;20.00;53.60;;;;;;4924977;29;20032;-85
2022/04/11 10:14:15;;;;;;;5.25;1.85;;;20.20;53.40;;;;;;4924769;29;20400;-87
2022/04/11 10:16:44;;;;;;;4.90;2.15;;;20.60;52.30;;;;;;4926658;29;20031;-87
2022/04/11 10:19:13;;;;;;;2.72;1.90;;;21.00;51.90;;;;;;4924498;29;20035;-87
2022/04/11 10:21:41;;;;;;;4.50;2.47;;;21.20;50.70;;;;;;4941314;29;20108;-87
2022/04/11 10:24:16;;;;;;;6.60;3.20;;;21.20;49.90;;;;;;4942948;29;20047;-87
2022/04/11 10:26:46;;;;;;;2.50;1.83;;;21.00;49.90;;;;;;4927298;29;20056;-85
2022/04/11 10:29:30;;;;;;;4.53;2.13;;;20.80;49.60;;;;;;4942680;29;20596;-87
2022/04/11 10:32:12;;;;;;;4.00;1.63;;;20.50;50.70;;;;;;4924752;29;20063;-88
2022/04/11 10:34:56;;;;;;;2.33;1.65;;;20.70;51.20;;;;;;4923141;29;20047;-85
2022/04/11 10:37:24;;;;;;;3.35;2.00;;;21.00;51.00;;;;;;4924005;29;20156;-85
2022/04/11 10:39:51;;;;;;;4.43;2.28;;;21.30;51.00;;;;;;4938600;29;20515;-85
2022/04/11 10:42:18;;;;;;;4.13;2.22;;;21.50;50.70;;;;;;4921567;29;20055;-86
2022/04/11 10:44:46;;;;;;;3.03;1.75;;;21.50;50.10;;;;;;4939811;29;20028;-88
2022/04/11 10:47:12;;;;;;;2.85;1.80;;;21.20;50.20;;;;;;4942315;29;20047;-87
2022/04/11 10:49:57;;;;;;;2.38;1.75;;;20.90;50.80;;;;;;4940957;29;20555;-87
2022/04/11 10:52:31;;;;;;;3.95;2.00;;;20.60;51.30;;;;;;4914686;29;20074;-87
2022/04/11 10:55:08;;;;;;;3.53;1.83;;;20.40;51.50;;;;;;4920619;29;20036;-86
2022/04/11 10:57:39;;;;;;;4.57;1.85;;;20.10;51.90;;;;;;4928023;29;20024;-86
2022/04/11 11:00:09;;;;;;;3.45;1.77;;;19.90;52.70;;;;;;4938615;29;20028;-85
2022/04/11 11:02:56;;;;;;;4.25;2.08;;;19.50;52.90;;;;;;4936820;29;20106;-83
2022/04/11 11:05:29;;;;;;;4.90;2.15;;;19.30;53.40;;;;;;4913955;29;20034;-86
2022/04/11 11:08:09;;;;;;;4.00;2.50;;;18.90;53.80;;;;;;4922293;29;20035;-87
2022/04/11 11:11:17;;;;;;;2.85;2.05;;;18.70;54.20;;;;;;4936142;29;20031;-85
2022/04/11 11:13:42;;;;;;;2.97;2.05;;;18.60;54.30;;;;;;4905635;29;20059;-87
2022/04/11 11:16:09;;;;;;;2.33;1.85;;;18.40;55.10;;;;;;4921419;29;20031;-86
2022/04/11 11:18:46;;;;;;;5.30;2.10;;;18.40;55.40;;;;;;4936717;29;20024;-84
2022/04/11 11:21:16;;;;;;;2.55;2.15;;;18.40;55.10;;;;;;4926138;29;20035;-84
2022/04/11 11:24:10;;;;;;;3.55;2.00;;;18.40;54.50;;;;;;4935501;29;20028;-86
2022/04/11 11:26:49;;;;;;;1.67;1.58;;;18.30;55.00;;;;;;4918313;29;20028;-87
2022/04/11 11:29:18;;;;;;;2.28;1.60;;;18.10;54.90;;;;;;4916055;29;20048;-83
2022/04/11 11:31:45;;;;;;;2.40;1.40;;;18.10;55.00;;;;;;4934866;29;20031;-85
2022/04/11 11:34:15;;;;;;;2.88;1.55;;;18.20;55.50;;;;;;4938938;29;20036;-86
2022/04/11 11:36:42;;;;;;;2.53;1.58;;;18.10;55.50;;;;;;4936692;29;20539;-87
2022/04/11 11:39:16;;;;;;;1.58;1.48;;;18.10;55.60;;;;;;4919720;29;20027;-85
2022/04/11 11:41:43;;;;;;;1.95;1.50;;;18.10;55.00;;;;;;4923616;29;20030;-85
2022/04/11 11:44:10;;;;;;;3.47;1.77;;;18.00;55.60;;;;;;4933742;29;20031;-87
2022/04/11 11:46:53;;;;;;;3.13;1.50;;;18.00;55.30;;;;;;4938046;29;20027;-87
2022/04/11 11:49:20;;;;;;;3.03;1.50;;;18.00;55.30;;;;;;4923960;29;20030;-87
2022/04/11 11:51:49;;;;;;;2.47;1.48;;;17.90;55.30;;;;;;4939936;29;20031;-86
2022/04/11 11:54:35;;;;;;;2.30;1.40;;;17.90;55.30;;;;;;4916416;29;20084;-85
2022/04/11 11:57:01;;;;;;;1.63;1.17;;;17.70;54.80;;;;;;4929936;29;20456;-86
2022/04/11 11:59:27;;;;;;;2.45;1.38;;;17.70;55.40;;;;;;4920206;29;20036;-87
2022/04/11 12:04:40;;;;;;;2.80;1.30;;;17.80;55.80;;;;;;4900741;29;20100;-87
2022/04/11 12:07:06;;;;;;;1.50;1.40;;;17.80;55.60;;;;;;4941032;29;20063;-86
2022/04/11 12:09:36;;;;;;;4.60;1.42;;;17.70;55.20;;;;;;4933090;29;20035;-87
2022/04/11 12:12:06;;;;;;;3.38;1.40;;;17.60;55.50;;;;;;4919535;29;20545;-84
2022/04/11 12:15:03;;;;;;;1.42;1.20;;;17.60;55.00;;;;;;4922249;29;20086;-87
2022/04/11 12:17:30;;;;;;;3.83;1.70;;;17.50;55.10;;;;;;4921986;29;20479;-85
2022/04/11 12:20:06;;;;;;;1.80;1.30;;;17.50;55.30;;;;;;4939829;29;20118;-87
2022/04/11 12:22:31;;;;;;;2.35;1.52;;;17.50;55.40;;;;;;4921447;29;20423;-87
2022/04/11 12:24:57;;;;;;;3.78;1.80;;;17.60;56.00;;;;;;4938703;29;20087;-87
2022/04/11 12:27:24;;;;;;;2.80;1.42;;;17.70;56.10;;;;;;4933625;29;20024;-84
2022/04/11 12:29:49;;;;;;;2.78;1.52;;;17.70;55.60;;;;;;4938510;29;20055;-86
2022/04/11 12:32:17;;;;;;;1.73;1.50;;;17.60;55.30;;;;;;4939405;29;20420;-85
2022/04/11 12:34:44;;;;;;;1.83;1.40;;;17.60;55.10;;;;;;4940364;29;20039;-86
2022/04/11 12:37:12;;;;;;;3.40;1.58;;;17.60;54.40;;;;;;4924464;29;20039;-83
2022/04/11 12:39:56;;;;;;;2.40;1.38;;;17.60;55.10;;;;;;4936213;29;20055;-84
2022/04/11 12:42:24;;;;;;;3.55;1.70;;;17.60;54.80;;;;;;4937543;29;20100;-86
2022/04/11 12:45:01;;;;;;;2.47;1.73;;;17.70;55.20;;;;;;4925140;29;20036;-86
2022/04/11 12:47:27;;;;;;;1.90;1.70;;;17.70;55.20;;;;;;4940255;29;20027;-86
2022/04/11 12:49:57;;;;;;;1.80;1.50;;;17.70;55.70;;;;;;4937744;29;20107;-86
2022/04/11 12:52:25;;;;;;;2.70;1.73;;;17.80;56.00;;;;;;4922347;29;20051;-85
2022/04/11 12:55:02;;;;;;;2.45;1.75;;;17.80;55.80;;;;;;4920492;29;20051;-88
2022/04/11 12:57:31;;;;;;;4.15;1.55;;;17.80;55.20;;;;;;4934931;29;20337;-88
2022/04/11 13:00:10;;;;;;;2.60;1.70;;;17.70;54.80;;;;;;4929703;29;20028;-86
2022/04/11 13:02:36;;;;;;;6.65;2.05;;;17.70;55.20;;;;;;4938293;29;20164;-89
2022/04/11 13:05:08;;;;;;;3.00;1.90;;;17.70;55.80;;;;;;4938948;29;20110;-88